KFDW

Fairfield County Airport

Winnsboro, South Carolina, USA
METAR KFDW 180055Z AUTO 35006KT 10SM CLR 17/09 A3019 RMK AO1
Observed Flight Rules
Oct-18 @ 00:55 UTC (16 minutes ago) Visual Flight Rules
Wind Visibility Clouds
350° at 6 knots 10 miles
  • Clear skies
Temperatures Readings
Current 17°C / 63°F
Dewpoint 9°C / 48°F
Humidity 59%
Altimeter 30.19" Hg
Pressure 1022 hPa
Elevation 176
METAR KFDW 180055Z AUTO 35006KT 10SM CLR 17/09 A3019 RMK AO1
Observed Flight Rules
Oct-18 @ 00:55 UTC
(16 minutes ago)
VFR
Wind Visibility
350° at 6 knots 10 miles
Clouds
  • Clear skies
Temperature Dewpoint
17°C / 63°F 9°C / 48°F
Humidity Altimeter Pressure
59% 30.19" Hg 1022 hPa